X  Fermer Données météorologiques d'aviation de Metar     LFBE Bergerac-Roumanière Airport
Température
17°C Température
13°C Point de rosée
77% Humidité



Vent
3 MPH
5 KM/H
1 M/S
3 KTS



Calme
N
Conditions actuelles

Clair Clair
Pression 1027.77 (hPa) - 30.35 (inHg)
Visibilité 6 (mile) - 9.7 (km)
Aéroport
Code de l'aéroport LFBE

Emplacement: Bergerac-Roumanière Airport
Distance: 26 (mi)

Metar:
LFBE 130830Z AUTO VRB03KT CAVOK 17/13 Q1028 NOSIG

Temps: 13-04-2024 10:30 CEST